Home > Products > Valid Products > MTR

000
SAUS43 KDLH 221457
MTRGNA
METAR KGNA 221456Z AUTO 19012KT 08/04 A3027 RMK AO1 SLP257 T00830044
51002





000
SAUS43 KDLH 221357
MTRGNA
METAR KGNA 221356Z AUTO 19008KT 08/06 A3027 RMK AO1 SLP256 T00780056





000
SAUS43 KDLH 221257
MTRGNA
METAR KGNA 221256Z AUTO 18008KT 08/06 A3027 RMK AO1 SLP257 T00780056





000
SAUS43 KDLH 221157
MTRGNA
METAR KGNA 221156Z AUTO 19008KT 08/06 A3027 RMK AO1 SLP255 T00780056
10078 20006 53005





000
SAUS43 KDLH 221057
MTRGNA
METAR KGNA 221056Z AUTO 00000KT 01/00 A3026 RMK AO1 SLP256 T00110000





000
SAUS43 KDLH 221057
MTRGNA
METAR KGNA 221056Z AUTO 00000KT 01/00 A3026 RMK AO1 SLP256 T00110000





000
SAUS43 KDLH 220957
MTRGNA
METAR KGNA 220956Z AUTO 35003KT 01/01 A3026 RMK AO1 SLP254 T00110006





000
SAUS43 KDLH 220957
MTRGNA
METAR KGNA 220956Z AUTO 35003KT 01/01 A3026 RMK AO1 SLP254 T00110006





000
SAUS43 KDLH 220857
MTRGNA
METAR KGNA 220856Z AUTO 02003KT 02/01 A3025 RMK AO1 SLP252 T00170006
56005





000
SAUS43 KDLH 220757
MTRGNA
METAR KGNA 220756Z AUTO 02004KT 02/01 A3026 RMK AO1 SLP254 T00170006





000
SAUS43 KDLH 220658
MTRGNA
METAR KGNA 220656Z AUTO 04003KT 03/02 A3026 RMK AO1 SLP254 T00330017





000
SAUS43 KDLH 220557
MTRGNA
METAR KGNA 220556Z AUTO 10006KT 07/03 A3027 RMK AO1 SLP256 T00670033
10067 20056 400670044 55002





000
SAUS43 KDLH 220557
MTRGNA
METAR KGNA 220556Z AUTO 10006KT 07/03 A3027 RMK AO1 SLP256 T00670033
10067 20056 400670044 55002





000
SAUS43 KDLH 220457
MTRGNA
METAR KGNA 220456Z AUTO 09007KT 07/03 A3027 RMK AO1 SLP256 T00670033





000
SAUS43 KDLH 220457
MTRGNA
METAR KGNA 220456Z AUTO 09007KT 07/03 A3027 RMK AO1 SLP256 T00670033





000
SAUS43 KDLH 220357
MTRGNA
METAR KGNA 220356Z AUTO 08010KT 06/03 A3027 RMK AO1 SLP257 T00610033





000
SAUS43 KDLH 220357
MTRGNA
METAR KGNA 220356Z AUTO 08010KT 06/03 A3027 RMK AO1 SLP257 T00610033





000
SAUS43 KDLH 220257
MTRGNA
METAR KGNA 220256Z AUTO 09010KT 06/03 A3027 RMK AO1 SLP258 T00560028
52005





000
SAUS43 KDLH 220157
MTRGNA
METAR KGNA 220156Z AUTO 09010KT 06/02 A3027 RMK AO1 SLP258 T00560017





000
SAUS43 KDLH 220157
MTRGNA
METAR KGNA 220156Z AUTO 09010KT 06/02 A3027 RMK AO1 SLP258 T00560017





000
SAUS43 KDLH 220057
MTRGNA
METAR KGNA 220056Z AUTO 08012KT 06/02 A3026 RMK AO1 SLP255 T00560017





000
SAUS43 KDLH 212357
MTRGNA
METAR KGNA 212356Z AUTO 09009KT 06/02 A3026 RMK AO1 SLP254 T00560017
10067 20056 56007





000
SAUS43 KDLH 212257
MTRGNA
METAR KGNA 212256Z AUTO 09007KT 06/01 A3026 RMK AO1 SLP255 T00560011





000
SAUS43 KDLH 212257
MTRGNA
METAR KGNA 212256Z AUTO 09007KT 06/01 A3026 RMK AO1 SLP255 T00560011





000
SAUS43 KDLH 212157
MTRGNA
METAR KGNA 212156Z AUTO 09006KT 06/01 A3027 RMK AO1 SLP258 T00610006





000
SAUS43 KDLH 212157
MTRGNA
METAR KGNA 212156Z AUTO 09006KT 06/01 A3027 RMK AO1 SLP258 T00610006





000
SAUS43 KDLH 212057
MTRGNA
METAR KGNA 212056Z AUTO 09005KT 07/01 A3028 RMK AO1 SLP260 T00670006
56009





000
SAUS43 KDLH 211957
MTRGNA
METAR KGNA 211956Z AUTO 10006KT 06/01 A3029 RMK AO1 SLP263 T00610006





000
SAUS43 KDLH 211957
MTRGNA
METAR KGNA 211956Z AUTO 10006KT 06/01 A3029 RMK AO1 SLP263 T00610006





000
SAUS43 KDLH 211857
MTRGNA
METAR KGNA 211856Z AUTO 08007KT 06/00 A3029 RMK AO1 SLP263 T00610000





000
SAUS43 KDLH 211757
MTRGNA
METAR KGNA 211756Z AUTO 09008KT 06/00 A3031 RMK AO1 SLP269 T00560000
10056 20044 50002





000
SAUS43 KDLH 211658
MTRGNA
METAR KGNA 211656Z AUTO 11008KT 06/01 A3031 RMK AO1 SLP271 T00560006





000
SAUS43 KDLH 211658
MTRGNA
METAR KGNA 211656Z AUTO 11008KT 06/01 A3031 RMK AO1 SLP271 T00560006





000
SAUS43 KDLH 211557
MTRGNA
METAR KGNA 211556Z AUTO 07006KT 05/01 A3030 RMK AO1 SLP267 T00500006





000
SAUS43 KDLH 211557
MTRGNA
METAR KGNA 211556Z AUTO 07006KT 05/01 A3030 RMK AO1 SLP267 T00500006





000
SAUS43 KDLH 211457
MTRGNA
METAR KGNA 211456Z AUTO 05004KT 05/00 A3030 RMK AO1 SLP267 T00500000
51014





000
SAUS43 KDLH 211357
MTRGNA
METAR KGNA 211356Z AUTO 01003KT 04/00 A3029 RMK AO1 SLP263 T00440000





000
SAUS43 KDLH 211257
MTRGNA
METAR KGNA 211256Z AUTO VRB05KT 04/M01 A3027 RMK AO1 SLP257
T00441006





000
SAUS43 KDLH 211157
MTRGNA
METAR KGNA 211156Z AUTO 03003KT 04/M01 A3026 RMK AO1 SLP253
T00441006 10056 20044 51015





000
SAUS43 KDLH 211157
MTRGNA
METAR KGNA 211156Z AUTO 03003KT 04/M01 A3026 RMK AO1 SLP253
T00441006 10056 20044 51015





000
SAUS43 KDLH 211057
MTRGNA
METAR KGNA 211056Z AUTO 01003KT 04/M01 A3024 RMK AO1 SLP246
T00441006 $





000
SAUS43 KDLH 211057
MTRGNA
METAR KGNA 211056Z AUTO 01003KT 04/M01 A3024 RMK AO1 SLP246
T00441006 $





000
SAUS43 KDLH 210958
MTRGNA
METAR KGNA 210956Z AUTO 36004KT 04/M01 A3023 RMK AO1 SLP242
T00441006 $





000
SAUS43 KDLH 210958
MTRGNA
METAR KGNA 210956Z AUTO 36004KT 04/M01 A3023 RMK AO1 SLP242
T00441006 $





000
SAUS43 KDLH 210858
MTRGNA
METAR KGNA 210856Z AUTO 00000KT 05/00 A3021 RMK AO1 SLP235 T00500000
51009 $





000
SAUS43 KDLH 210757
MTRGNA
METAR KGNA 210756Z AUTO 06007KT 05/00 A3021 RMK AO1 SLP234 T00500000
$





000
SAUS43 KDLH 210657
MTRGNA
METAR KGNA 210656Z AUTO 04007KT 05/00 A3019 RMK AO1 SLP229 T00500000
$





000
SAUS43 KDLH 210557
MTRGNA
METAR KGNA 210556Z AUTO 04005KT 06/00 A3018 RMK AO1 SLP226 T00560000
10083 20044 401220044 51016 $





000
SAUS43 KDLH 210457
MTRGNA
METAR KGNA 210456Z AUTO 05007KT 06/01 A3017 RMK AO1 SLP219 T00560006
$





000
SAUS43 KDLH 210457
MTRGNA
METAR KGNA 210456Z AUTO 05007KT 06/01 A3017 RMK AO1 SLP219 T00560006
$





000
SAUS43 KDLH 210358
MTRGNA
METAR KGNA 210356Z AUTO 01003KT 05/00 A3015 RMK AO1 SLP216 T00500000
$





000
SAUS43 KDLH 210358
MTRGNA
METAR KGNA 210356Z AUTO 01003KT 05/00 A3015 RMK AO1 SLP216 T00500000
$





000
SAUS43 KDLH 210257
MTRGNA
METAR KGNA 210256Z AUTO 00000KT 07/01 A3014 RMK AO1 SLP209 T00670006
51028 $





000
SAUS43 KDLH 210157
MTRGNA
METAR KGNA 210156Z AUTO 05003KT 07/02 A3012 RMK AO1 SLP202 T00720017
$





000
SAUS43 KDLH 210157
MTRGNA
METAR KGNA 210156Z AUTO 05003KT 07/02 A3012 RMK AO1 SLP202 T00720017
$





000
SAUS43 KDLH 210057
MTRGNA
METAR KGNA 210056Z AUTO 06005KT 08/02 A3009 RMK AO1 SLP193 T00830022
$





000
SAUS43 KDLH 202357
MTRGNA
METAR KGNA 202356Z AUTO 35006KT 08/02 A3005 RMK AO1 SLP180 T00780022
10122 20067 51022





000
SAUS43 KDLH 202257
MTRGNA
METAR KGNA 202256Z AUTO VRB03KT 09/03 A3004 RMK AO1 SLP175 T00890028





000
SAUS43 KDLH 202257
MTRGNA
METAR KGNA 202256Z AUTO VRB03KT 09/03 A3004 RMK AO1 SLP175 T00890028





000
SAUS43 KDLH 202157
MTRGNA
METAR KGNA 202156Z AUTO 02005KT 10/03 A3001 RMK AO1 SLP164 T01000033





000
SAUS43 KDLH 202157
MTRGNA
METAR KGNA 202156Z AUTO 02005KT 10/03 A3001 RMK AO1 SLP164 T01000033





000
SAUS43 KDLH 202057
MTRGNA
METAR KGNA 202056Z AUTO VRB05KT 11/03 A2999 RMK AO1 SLP156 T01060033
53012





000
SAUS43 KDLH 201958
MTRGNA
METAR KGNA 201956Z AUTO 34006KT 12/03 A2997 RMK AO1 SLP149 T01170033





000
SAUS43 KDLH 201857
MTRGNA
METAR KGNA 201856Z AUTO 01005KT 11/04 A2996 RMK AO1 SLP146 T01060044





000
SAUS43 KDLH 201757
MTRGNA
METAR KGNA 201756Z AUTO VRB06KT 11/05 A2995 RMK AO1 SLP144 T01060050
10117 20089 53013





000
SAUS43 KDLH 201657
MTRGNA
METAR KGNA 201656Z AUTO 32005KT 12/05 A2993 RMK AO1 SLP138 T01170050





000
SAUS43 KDLH 201557
MTRGNA
METAR KGNA 201556Z AUTO VRB03KT 11/04 A2992 RMK AO1 SLP136 T01110044





000
SAUS43 KDLH 201457
MTRGNA
METAR KGNA 201456Z AUTO VRB03KT 11/05 A2991 RMK AO1 SLP132 T01110050
51016





000
SAUS43 KDLH 201357
MTRGNA
METAR KGNA 201356Z AUTO 28003KT 10/06 A2990 RMK AO1 SLP128 T01000056
$





000
SAUS43 KDLH 201257
MTRGNA
METAR KGNA 201256Z AUTO 00000KT 09/05 A2988 RMK AO1 SLP120 T00940050
$





000
SAUS43 KDLH 201158
MTRGNA
METAR KGNA 201156Z AUTO 00000KT 09/06 A2986 RMK AO1 SLP115 T00940056
10106 20089 53016 $





000
SAUS43 KDLH 201057
MTRGNA
METAR KGNA 201056Z AUTO 00000KT 09/06 A2984 RMK AO1 SLP109 T00940056
$





000
SAUS43 KDLH 200957
MTRGNA
METAR KGNA 200956Z AUTO 31005KT 09/06 A2983 RMK AO1 SLP105 T00940056
$





000
SAUS43 KDLH 200957
MTRGNA
METAR KGNA 200956Z AUTO 31005KT 09/06 A2983 RMK AO1 SLP105 T00940056
$





000
SAUS43 KDLH 200857
MTRGNA
METAR KGNA 200856Z AUTO 00000KT 10/06 A2982 RMK AO1 SLP099 T01000056
53012 $





000
SAUS43 KDLH 200757
MTRGNA
METAR KGNA 200756Z AUTO 00000KT 10/06 A2980 RMK AO1 SLP094 T01000056
$





000
SAUS43 KDLH 200657
MTRGNA
METAR KGNA 200656Z AUTO 00000KT 10/05 A2979 RMK AO1 SLP090 T01000050
$





000
SAUS43 KDLH 200557
MTRGNA
METAR KGNA 200556Z AUTO 00000KT 10/06 A2978 RMK AO1 SLP087 T01000056
10111 20078 401111006 53014 $





000
SAUS43 KDLH 200457
MTRGNA
METAR KGNA 200456Z AUTO 06005KT 10/06 A2976 RMK AO1 SLP081 T01000056
$





000
SAUS43 KDLH 200357
MTRGNA
METAR KGNA 200356Z AUTO 00000KT 08/06 A2975 RMK AO1 SLP077 T00780056
$





000
SAUS43 KDLH 200257
MTRGNA
METAR KGNA 200256Z AUTO 00000KT 08/06 A2974 RMK AO1 SLP074 T00780056
51004 $





000
SAUS43 KDLH 200158
MTRGNA
METAR KGNA 200156Z AUTO 00000KT 08/06 A2974 RMK AO1 SLP075 T00780056
$





000
SAUS43 KDLH 200057
MTRGNA
METAR KGNA 200056Z AUTO 00000KT 08/06 A2973 RMK AO1 SLP073 T00780056
$





000
SAUS43 KDLH 192357
MTRGNA
METAR KGNA 192356Z AUTO 00000KT 08/06 A2973 RMK AO1 SLP073 T00780056
10094 20072 51006 $





000
SAUS43 KDLH 192357
MTRGNA
METAR KGNA 192356Z AUTO 00000KT 08/06 A2973 RMK AO1 SLP073 T00780056
10094 20072 51006 $





000
SAUS43 KDLH 192258
MTRGNA
METAR KGNA 192256Z AUTO 00000KT 08/05 A2972 RMK AO1 SLP071 T00830050
$





000
SAUS43 KDLH 192258
MTRGNA
METAR KGNA 192256Z AUTO 00000KT 08/05 A2972 RMK AO1 SLP071 T00830050
$





000
SAUS43 KDLH 192157
MTRGNA
METAR KGNA 192156Z AUTO 00000KT 08/06 A2971 RMK AO1 SLP069 T00830056
$





000
SAUS43 KDLH 192057
MTRGNA
METAR KGNA 192056Z AUTO 23005KT 09/06 A2971 RMK AO1 SLP067 T00890056
56019 $





000
SAUS43 KDLH 191957
MTRGNA
METAR KGNA 191956Z AUTO 00000KT 09/06 A2972 RMK AO1 SLP070 T00890056
$





000
SAUS43 KDLH 191857
MTRGNA
METAR KGNA 191856Z AUTO 00000KT 09/05 A2973 RMK AO1 SLP075 T00890050
$





000
SAUS43 KDLH 191758
MTRGNA
METAR KGNA 191756Z AUTO 23004KT 08/06 A2976 RMK AO1 SLP086 T00780056
10078 20022 58029 $





000
SAUS43 KDLH 191657
MTRGNA
METAR KGNA 191656Z AUTO 23005KT 08/05 A2980 RMK AO1 SLP098 T00780050
$





000
SAUS43 KDLH 191557
MTRGNA
METAR KGNA 191556Z AUTO 21009KT 08/04 A2983 RMK AO1 SLP106 T00780044
$





    US Dept of Commerce
    National Oceanic and Atmospheric Administration
    National Weather Service
    1325 East West Highway
    Silver Spring, MD 20910
    Page Author: NWS Internet Services Team
Disclaimer
Information Quality
Credits
Glossary
Privacy Policy
Freedom of Information Act (FOIA)
About Us
Career Opportunities